TimeEDT,TemperatureF,Dew PointF,Humidity,Sea Level PressureIn,VisibilityMPH,Wind Direction,Wind SpeedMPH,Gust SpeedMPH,PrecipitationIn,Events,Conditions,WindDirDegrees,DateUTC
12:53 AM,81.0,69.1,67,30.10,10.0,East,20.7,-,N/A,,Partly Cloudy,90,2012-09-12 04:53:00
1:53 AM,80.1,70.0,71,30.08,10.0,East,16.1,-,N/A,,Clear,80,2012-09-12 05:53:00
2:53 AM,80.1,71.1,74,30.07,10.0,East,17.3,-,N/A,,Clear,80,2012-09-12 06:53:00
3:53 AM,79.0,72.0,79,30.06,10.0,ENE,16.1,-,N/A,,Overcast,70,2012-09-12 07:53:00
4:53 AM,79.0,72.0,79,30.06,10.0,ENE,12.7,-,N/A,,Overcast,70,2012-09-12 08:53:00
5:53 AM,79.0,73.0,82,30.07,10.0,East,15.0,-,N/A,,Overcast,80,2012-09-12 09:53:00
6:53 AM,78.1,73.0,84,30.08,10.0,ENE,15.0,-,N/A,,Overcast,70,2012-09-12 10:53:00
7:53 AM,79.0,73.0,82,30.10,10.0,ENE,13.8,-,N/A,,Mostly Cloudy,70,2012-09-12 11:53:00
8:53 AM,79.0,73.9,84,30.11,10.0,ENE,15.0,-,N/A,,Mostly Cloudy,70,2012-09-12 12:53:00
9:53 AM,81.0,73.9,79,30.11,10.0,East,15.0,-,N/A,,Clear,80,2012-09-12 13:53:00
10:53 AM,82.9,73.9,74,30.12,10.0,ENE,12.7,-,N/A,,Clear,70,2012-09-12 14:53:00
11:53 AM,84.9,73.0,67,30.12,10.0,East,12.7,-,N/A,,Clear,90,2012-09-12 15:53:00
12:53 PM,86.0,73.0,65,30.11,10.0,East,11.5,-,N/A,,Clear,80,2012-09-12 16:53:00
1:53 PM,88.0,73.0,61,30.08,10.0,East,6.9,-,N/A,,Clear,90,2012-09-12 17:53:00
2:53 PM,87.1,73.0,63,30.06,10.0,ESE,11.5,-,N/A,,Scattered Clouds,110,2012-09-12 18:53:00
3:53 PM,84.0,75.0,74,30.05,10.0,ENE,19.6,-,N/A,,Overcast,60,2012-09-12 19:53:00
4:53 PM,82.9,73.0,72,30.06,10.0,East,20.7,-,N/A,,Overcast,100,2012-09-12 20:53:00
5:53 PM,84.0,73.0,69,30.05,10.0,East,19.6,-,N/A,,Overcast,80,2012-09-12 21:53:00
6:53 PM,84.0,73.0,69,30.05,10.0,East,18.4,-,N/A,,Mostly Cloudy,80,2012-09-12 22:53:00
7:53 PM,82.9,75.0,77,30.05,10.0,East,16.1,-,N/A,,Mostly Cloudy,90,2012-09-12 23:53:00
8:53 PM,82.0,75.0,79,30.06,10.0,East,16.1,-,N/A,,Clear,100,2012-09-13 00:53:00
9:53 PM,82.0,73.9,76,30.08,10.0,East,17.3,-,N/A,,Partly Cloudy,80,2012-09-13 01:53:00
10:53 PM,81.0,75.0,82,30.08,10.0,ENE,16.1,-,N/A,,Clear,70,2012-09-13 02:53:00
11:53 PM,81.0,73.9,79,30.09,10.0,East,18.4,-,N/A,,Clear,80,2012-09-13 03:53:00